sensor_id;sensor_type;location;lat;lon;timestamp;pressure;altitude;pressure_sealevel;temperature;humidity
63190;BME280;49286;44.460;26.114;2023-03-14T00:02:18;100851.72;;;4.66;100.00
63190;BME280;49286;44.460;26.114;2023-03-14T00:04:44;100819.19;;;4.52;100.00
63190;BME280;49286;44.460;26.114;2023-03-14T00:07:13;100818.66;;;4.62;100.00
63190;BME280;49286;44.460;26.114;2023-03-14T00:09:40;100963.88;;;5.36;100.00
63190;BME280;49286;44.460;26.114;2023-03-14T00:12:06;100972.53;;;5.35;100.00
63190;BME280;49286;44.460;26.114;2023-03-14T00:14:32;100952.31;;;5.26;100.00
63190;BME280;49286;44.460;26.114;2023-03-14T00:16:58;100923.94;;;5.05;100.00
63190;BME280;49286;44.460;26.114;2023-03-14T00:19:23;100948.19;;;5.33;100.00
63190;BME280;49286;44.460;26.114;2023-03-14T00:21:49;100878.53;;;4.94;100.00
63190;BME280;49286;44.460;26.114;2023-03-14T00:24:14;100925.28;;;5.21;100.00
63190;BME280;49286;44.460;26.114;2023-03-14T00:26:40;100889.47;;;5.12;100.00
63190;BME280;49286;44.460;26.114;2023-03-14T00:29:05;100830.13;;;4.69;100.00
63190;BME280;49286;44.460;26.114;2023-03-14T00:31:31;100936.81;;;5.29;100.00
63190;BME280;49286;44.460;26.114;2023-03-14T00:33:56;100948.28;;;5.36;100.00
63190;BME280;49286;44.460;26.114;2023-03-14T00:36:22;100917.69;;;5.27;100.00
63190;BME280;49286;44.460;26.114;2023-03-14T00:38:50;100813.59;;;4.67;100.00
63190;BME280;49286;44.460;26.114;2023-03-14T00:41:19;100942.94;;;5.31;100.00
63190;BME280;49286;44.460;26.114;2023-03-14T00:43:45;100792.00;;;4.40;100.00
63190;BME280;49286;44.460;26.114;2023-03-14T00:46:11;100936.19;;;5.38;100.00
63190;BME280;49286;44.460;26.114;2023-03-14T00:48:38;100930.06;;;5.36;100.00
63190;BME280;49286;44.460;26.114;2023-03-14T00:51:05;100951.66;;;5.32;100.00
63190;BME280;49286;44.460;26.114;2023-03-14T00:53:31;100933.25;;;5.25;100.00
63190;BME280;49286;44.460;26.114;2023-03-14T00:56:01;100938.28;;;5.49;100.00
63190;BME280;49286;44.460;26.114;2023-03-14T00:58:27;100929.50;;;5.16;100.00
63190;BME280;49286;44.460;26.114;2023-03-14T01:00:52;100918.69;;;5.32;100.00
63190;BME280;49286;44.460;26.114;2023-03-14T01:03:18;100788.72;;;4.46;100.00
63190;BME280;49286;44.460;26.114;2023-03-14T01:05:43;100778.75;;;4.33;100.00
63190;BME280;49286;44.460;26.114;2023-03-14T01:08:09;100775.34;;;4.34;100.00
63190;BME280;49286;44.460;26.114;2023-03-14T01:10:40;100908.03;;;5.23;100.00
63190;BME280;49286;44.460;26.114;2023-03-14T01:13:06;100922.63;;;5.19;100.00
63190;BME280;49286;44.460;26.114;2023-03-14T01:15:35;100911.16;;;5.13;100.00
63190;BME280;49286;44.460;26.114;2023-03-14T01:18:01;100768.50;;;4.37;100.00
63190;BME280;49286;44.460;26.114;2023-03-14T01:20:26;100782.66;;;4.47;100.00
63190;BME280;49286;44.460;26.114;2023-03-14T01:22:51;100764.09;;;4.35;100.00
63190;BME280;49286;44.460;26.114;2023-03-14T01:25:17;100747.31;;;4.23;100.00
63190;BME280;49286;44.460;26.114;2023-03-14T01:27:43;100793.84;;;4.44;100.00
63190;BME280;49286;44.460;26.114;2023-03-14T01:30:11;100907.47;;;4.77;100.00
63190;BME280;49286;44.460;26.114;2023-03-14T01:32:37;100900.16;;;4.64;100.00
63190;BME280;49286;44.460;26.114;2023-03-14T01:35:03;100876.13;;;4.71;100.00
63190;BME280;49286;44.460;26.114;2023-03-14T01:37:28;100743.16;;;4.01;100.00
63190;BME280;49286;44.460;26.114;2023-03-14T01:39:54;100879.22;;;4.88;100.00
63190;BME280;49286;44.460;26.114;2023-03-14T01:42:19;100742.28;;;4.01;100.00
63190;BME280;49286;44.460;26.114;2023-03-14T01:44:55;100887.91;;;4.89;100.00
63190;BME280;49286;44.460;26.114;2023-03-14T01:47:22;100750.53;;;4.15;100.00
63190;BME280;49286;44.460;26.114;2023-03-14T01:49:51;100850.78;;;4.65;100.00
63190;BME280;49286;44.460;26.114;2023-03-14T01:52:29;100895.38;;;4.78;100.00
63190;BME280;49286;44.460;26.114;2023-03-14T01:55:03;100802.19;;;4.34;100.00
63190;BME280;49286;44.460;26.114;2023-03-14T01:57:34;100759.75;;;4.07;100.00
63190;BME280;49286;44.460;26.114;2023-03-14T02:00:10;100882.75;;;4.90;100.00
63190;BME280;49286;44.460;26.114;2023-03-14T02:02:38;100750.41;;;4.12;100.00
63190;BME280;49286;44.460;26.114;2023-03-14T02:05:05;100734.38;;;3.98;100.00
63190;BME280;49286;44.460;26.114;2023-03-14T02:07:54;100736.22;;;4.00;100.00
63190;BME280;49286;44.460;26.114;2023-03-14T02:10:24;100736.16;;;3.99;100.00
63190;BME280;49286;44.460;26.114;2023-03-14T02:12:51;100726.34;;;3.90;100.00
63190;BME280;49286;44.460;26.114;2023-03-14T02:15:18;100836.19;;;4.42;100.00
63190;BME280;49286;44.460;26.114;2023-03-14T02:17:45;100874.31;;;4.41;100.00
63190;BME280;49286;44.460;26.114;2023-03-14T02:20:48;100857.16;;;4.21;100.00
63190;BME280;49286;44.460;26.114;2023-03-14T02:23:24;100850.78;;;4.10;100.00
63190;BME280;49286;44.460;26.114;2023-03-14T02:25:58;100867.69;;;4.51;100.00
63190;BME280;49286;44.460;26.114;2023-03-14T02:28:26;100869.63;;;4.58;100.00
63190;BME280;49286;44.460;26.114;2023-03-14T02:30:51;100868.47;;;4.49;100.00
63190;BME280;49286;44.460;26.114;2023-03-14T02:33:19;100860.72;;;4.23;100.00
63190;BME280;49286;44.460;26.114;2023-03-14T02:38:35;100886.94;;;4.58;100.00
63190;BME280;49286;44.460;26.114;2023-03-14T02:41:03;100870.53;;;4.32;100.00
63190;BME280;49286;44.460;26.114;2023-03-14T02:43:29;100874.00;;;4.32;100.00
63190;BME280;49286;44.460;26.114;2023-03-14T02:45:54;100837.16;;;4.17;100.00
63190;BME280;49286;44.460;26.114;2023-03-14T02:48:39;100729.31;;;3.48;100.00
63190;BME280;49286;44.460;26.114;2023-03-14T02:51:07;100887.94;;;4.34;100.00
63190;BME280;49286;44.460;26.114;2023-03-14T02:53:36;100891.88;;;4.23;100.00
63190;BME280;49286;44.460;26.114;2023-03-14T02:56:02;100784.72;;;3.76;100.00
63190;BME280;49286;44.460;26.114;2023-03-14T02:58:29;100892.09;;;4.56;100.00
63190;BME280;49286;44.460;26.114;2023-03-14T03:00:55;100893.50;;;4.47;100.00
63190;BME280;49286;44.460;26.114;2023-03-14T03:03:20;100886.56;;;4.46;100.00
63190;BME280;49286;44.460;26.114;2023-03-14T03:05:53;100778.25;;;3.63;100.00
63190;BME280;49286;44.460;26.114;2023-03-14T03:08:20;100884.91;;;4.48;100.00
63190;BME280;49286;44.460;26.114;2023-03-14T03:10:46;100769.16;;;3.76;100.00
63190;BME280;49286;44.460;26.114;2023-03-14T03:13:12;100889.06;;;4.42;100.00
63190;BME280;49286;44.460;26.114;2023-03-14T03:15:37;100834.72;;;4.21;100.00
63190;BME280;49286;44.460;26.114;2023-03-14T03:18:03;100866.50;;;4.41;100.00
63190;BME280;49286;44.460;26.114;2023-03-14T03:20:29;100760.44;;;3.74;100.00
63190;BME280;49286;44.460;26.114;2023-03-14T03:22:54;100732.75;;;3.47;100.00
63190;BME280;49286;44.460;26.114;2023-03-14T03:25:20;100824.13;;;3.64;100.00
63190;BME280;49286;44.460;26.114;2023-03-14T03:27:45;100864.25;;;3.74;100.00
63190;BME280;49286;44.460;26.114;2023-03-14T03:30:11;100707.91;;;3.04;100.00
63190;BME280;49286;44.460;26.114;2023-03-14T03:32:36;100811.47;;;3.73;100.00
63190;BME280;49286;44.460;26.114;2023-03-14T03:35:04;100701.28;;;3.12;100.00
63190;BME280;49286;44.460;26.114;2023-03-14T03:37:33;100784.00;;;3.54;100.00
63190;BME280;49286;44.460;26.114;2023-03-14T03:39:59;100768.44;;;3.54;100.00
63190;BME280;49286;44.460;26.114;2023-03-14T03:42:26;100710.38;;;3.25;100.00
63190;BME280;49286;44.460;26.114;2023-03-14T03:44:52;100755.47;;;3.54;100.00
63190;BME280;49286;44.460;26.114;2023-03-14T03:47:17;100827.41;;;3.84;100.00
63190;BME280;49286;44.460;26.114;2023-03-14T03:49:43;100742.13;;;3.44;100.00
63190;BME280;49286;44.460;26.114;2023-03-14T03:52:08;100702.13;;;3.11;100.00
63190;BME280;49286;44.460;26.114;2023-03-14T03:54:35;100831.44;;;3.76;100.00
63190;BME280;49286;44.460;26.114;2023-03-14T03:57:00;100829.66;;;3.25;100.00
63190;BME280;49286;44.460;26.114;2023-03-14T03:59:26;100842.13;;;3.11;100.00
63190;BME280;49286;44.460;26.114;2023-03-14T04:01:51;100827.16;;;3.04;100.00
63190;BME280;49286;44.460;26.114;2023-03-14T04:04:17;100820.13;;;3.00;100.00
63190;BME280;49286;44.460;26.114;2023-03-14T04:06:42;100695.53;;;2.25;100.00
63190;BME280;49286;44.460;26.114;2023-03-14T04:09:09;100812.00;;;2.91;100.00
63190;BME280;49286;44.460;26.114;2023-03-14T04:11:35;100541.94;;;1.33;100.00
63190;BME280;49286;44.460;26.114;2023-03-14T04:14:00;100731.03;;;2.74;100.00
63190;BME280;49286;44.460;26.114;2023-03-14T04:16:26;100799.31;;;3.23;100.00
63190;BME280;49286;44.460;26.114;2023-03-14T04:18:52;100842.19;;;3.61;100.00
63190;BME280;49286;44.460;26.114;2023-03-14T04:21:18;100795.44;;;3.35;100.00
63190;BME280;49286;44.460;26.114;2023-03-14T04:23:44;100819.28;;;3.25;100.00
63190;BME280;49286;44.460;26.114;2023-03-14T04:26:10;100676.75;;;2.30;100.00
63190;BME280;49286;44.460;26.114;2023-03-14T04:28:35;100836.81;;;3.08;100.00
63190;BME280;49286;44.460;26.114;2023-03-14T04:31:13;100814.25;;;3.06;100.00
63190;BME280;49286;44.460;26.114;2023-03-14T04:33:39;100838.38;;;3.27;100.00
63190;BME280;49286;44.460;26.114;2023-03-14T04:36:06;100719.69;;;2.48;100.00
63190;BME280;49286;44.460;26.114;2023-03-14T04:38:32;100838.50;;;3.30;100.00
63190;BME280;49286;44.460;26.114;2023-03-14T04:40:57;100709.56;;;2.54;100.00
63190;BME280;49286;44.460;26.114;2023-03-14T04:43:24;100813.03;;;2.96;100.00
63190;BME280;49286;44.460;26.114;2023-03-14T04:45:52;100826.97;;;3.00;100.00
63190;BME280;49286;44.460;26.114;2023-03-14T04:48:18;100716.19;;;2.23;100.00
63190;BME280;49286;44.460;26.114;2023-03-14T04:50:44;100682.69;;;1.83;100.00
63190;BME280;49286;44.460;26.114;2023-03-14T04:53:11;100684.50;;;1.42;100.00
63190;BME280;49286;44.460;26.114;2023-03-14T04:55:37;100689.91;;;1.27;100.00
63190;BME280;49286;44.460;26.114;2023-03-14T04:58:02;100707.16;;;1.47;100.00
63190;BME280;49286;44.460;26.114;2023-03-14T05:00:28;100825.03;;;2.26;100.00
63190;BME280;49286;44.460;26.114;2023-03-14T05:02:53;100764.34;;;1.76;100.00
63190;BME280;49286;44.460;26.114;2023-03-14T05:05:19;100647.16;;;1.14;100.00
63190;BME280;49286;44.460;26.114;2023-03-14T05:07:44;100662.84;;;1.40;100.00
63190;BME280;49286;44.460;26.114;2023-03-14T05:10:10;100689.34;;;1.55;100.00
63190;BME280;49286;44.460;26.114;2023-03-14T05:12:35;100543.59;;;0.89;100.00
63190;BME280;49286;44.460;26.114;2023-03-14T05:15:01;100799.28;;;2.29;100.00
63190;BME280;49286;44.460;26.114;2023-03-14T05:17:26;100815.41;;;1.80;100.00
63190;BME280;49286;44.460;26.114;2023-03-14T05:19:52;100648.13;;;0.76;100.00
63190;BME280;49286;44.460;26.114;2023-03-14T05:22:18;100678.59;;;1.04;100.00
63190;BME280;49286;44.460;26.114;2023-03-14T05:24:43;100803.94;;;1.54;100.00
63190;BME280;49286;44.460;26.114;2023-03-14T05:27:09;100811.09;;;1.60;100.00
63190;BME280;49286;44.460;26.114;2023-03-14T05:29:34;100791.91;;;1.55;100.00
63190;BME280;49286;44.460;26.114;2023-03-14T05:32:00;100809.91;;;1.94;100.00
63190;BME280;49286;44.460;26.114;2023-03-14T05:34:25;100718.00;;;1.19;100.00
63190;BME280;49286;44.460;26.114;2023-03-14T05:36:51;100588.22;;;0.63;100.00
63190;BME280;49286;44.460;26.114;2023-03-14T05:39:18;100708.97;;;1.29;100.00
63190;BME280;49286;44.460;26.114;2023-03-14T05:41:43;100832.38;;;2.16;100.00
63190;BME280;49286;44.460;26.114;2023-03-14T05:44:08;100691.47;;;1.44;100.00
63190;BME280;49286;44.460;26.114;2023-03-14T05:46:34;100691.84;;;1.54;100.00
63190;BME280;49286;44.460;26.114;2023-03-14T05:49:00;100825.50;;;2.39;100.00
63190;BME280;49286;44.460;26.114;2023-03-14T05:51:25;100813.16;;;2.31;100.00
63190;BME280;49286;44.460;26.114;2023-03-14T05:53:51;100696.31;;;1.79;100.00
63190;BME280;49286;44.460;26.114;2023-03-14T05:56:16;100702.75;;;1.88;100.00
63190;BME280;49286;44.460;26.114;2023-03-14T05:58:43;100775.56;;;2.41;100.00
63190;BME280;49286;44.460;26.114;2023-03-14T06:01:09;100670.47;;;1.79;100.00
63190;BME280;49286;44.460;26.114;2023-03-14T06:03:34;100836.03;;;2.87;100.00
63190;BME280;49286;44.460;26.114;2023-03-14T06:06:00;100738.19;;;2.35;100.00
63190;BME280;49286;44.460;26.114;2023-03-14T06:08:26;100697.81;;;2.17;100.00
63190;BME280;49286;44.460;26.114;2023-03-14T06:10:52;100692.00;;;2.23;100.00
63190;BME280;49286;44.460;26.114;2023-03-14T06:13:17;100808.56;;;2.92;100.00
63190;BME280;49286;44.460;26.114;2023-03-14T06:15:43;100830.94;;;3.12;100.00
63190;BME280;49286;44.460;26.114;2023-03-14T06:18:08;100682.56;;;2.47;100.00
63190;BME280;49286;44.460;26.114;2023-03-14T06:20:37;100786.19;;;3.18;100.00
63190;BME280;49286;44.460;26.114;2023-03-14T06:23:06;100838.84;;;3.65;100.00
63190;BME280;49286;44.460;26.114;2023-03-14T06:25:33;100827.41;;;3.58;100.00
63190;BME280;49286;44.460;26.114;2023-03-14T06:27:59;100682.56;;;2.95;100.00
63190;BME280;49286;44.460;26.114;2023-03-14T06:30:24;100707.38;;;3.38;100.00
63190;BME280;49286;44.460;26.114;2023-03-14T06:32:50;100828.22;;;4.09;100.00
63190;BME280;49286;44.460;26.114;2023-03-14T06:35:15;100835.13;;;4.08;100.00
63190;BME280;49286;44.460;26.114;2023-03-14T06:37:41;100833.19;;;4.02;100.00
63190;BME280;49286;44.460;26.114;2023-03-14T06:40:07;100752.41;;;3.66;100.00
63190;BME280;49286;44.460;26.114;2023-03-14T06:42:33;100821.25;;;4.35;100.00
63190;BME280;49286;44.460;26.114;2023-03-14T06:44:58;100694.81;;;3.51;100.00
63190;BME280;49286;44.460;26.114;2023-03-14T06:47:24;100826.31;;;4.30;100.00
63190;BME280;49286;44.460;26.114;2023-03-14T06:49:49;100805.28;;;4.22;100.00
63190;BME280;49286;44.460;26.114;2023-03-14T06:52:15;100763.44;;;4.13;100.00
63190;BME280;49286;44.460;26.114;2023-03-14T06:54:40;100809.25;;;4.38;100.00
63190;BME280;49286;44.460;26.114;2023-03-14T06:57:06;100689.81;;;4.11;100.00
63190;BME280;49286;44.460;26.114;2023-03-14T06:59:31;100771.16;;;4.68;100.00
63190;BME280;49286;44.460;26.114;2023-03-14T07:01:56;100684.81;;;4.17;100.00
63190;BME280;49286;44.460;26.114;2023-03-14T07:04:22;100675.38;;;4.21;100.00
63190;BME280;49286;44.460;26.114;2023-03-14T07:06:47;100644.41;;;3.98;100.00
63190;BME280;49286;44.460;26.114;2023-03-14T07:09:14;100819.38;;;5.17;100.00
63190;BME280;49286;44.460;26.114;2023-03-14T07:11:39;100684.97;;;4.52;99.84
63190;BME280;49286;44.460;26.114;2023-03-14T07:14:05;100710.22;;;4.58;97.69
63190;BME280;49286;44.460;26.114;2023-03-14T07:16:31;100708.63;;;4.93;97.94
63190;BME280;49286;44.460;26.114;2023-03-14T07:18:59;100782.00;;;5.45;94.01
63190;BME280;49286;44.460;26.114;2023-03-14T07:21:24;100689.38;;;4.86;90.65
63190;BME280;49286;44.460;26.114;2023-03-14T07:23:50;100665.41;;;4.97;88.56
63190;BME280;49286;44.460;26.114;2023-03-14T07:26:15;100786.31;;;5.78;89.78
63190;BME280;49286;44.460;26.114;2023-03-14T07:28:41;100782.03;;;5.80;87.61
63190;BME280;49286;44.460;26.114;2023-03-14T07:31:07;100805.91;;;5.95;86.13
63190;BME280;49286;44.460;26.114;2023-03-14T07:33:33;100681.06;;;5.33;82.71
63190;BME280;49286;44.460;26.114;2023-03-14T07:35:58;100678.88;;;5.50;82.18
63190;BME280;49286;44.460;26.114;2023-03-14T07:38:24;100669.38;;;5.50;76.94
63190;BME280;49286;44.460;26.114;2023-03-14T07:40:50;100737.50;;;6.04;72.95
63190;BME280;49286;44.460;26.114;2023-03-14T07:43:15;100814.78;;;6.40;73.94
63190;BME280;49286;44.460;26.114;2023-03-14T07:45:41;100777.81;;;6.58;73.00
63190;BME280;49286;44.460;26.114;2023-03-14T07:48:06;100800.03;;;6.80;72.15
63190;BME280;49286;44.460;26.114;2023-03-14T07:50:32;100691.22;;;6.31;70.43
63190;BME280;49286;44.460;26.114;2023-03-14T07:52:57;100783.72;;;6.88;68.04
63190;BME280;49286;44.460;26.114;2023-03-14T07:55:23;100726.56;;;6.58;64.66
63190;BME280;49286;44.460;26.114;2023-03-14T07:57:48;100662.88;;;6.45;66.79
63190;BME280;49286;44.460;26.114;2023-03-14T08:00:14;100780.00;;;7.19;65.48
63190;BME280;49286;44.460;26.114;2023-03-14T08:02:40;100663.97;;;6.57;65.46
63190;BME280;49286;44.460;26.114;2023-03-14T08:05:06;100763.56;;;7.25;64.07
63190;BME280;49286;44.460;26.114;2023-03-14T08:07:32;100648.47;;;6.64;64.55
63190;BME280;49286;44.460;26.114;2023-03-14T08:09:57;100759.56;;;7.44;65.33
63190;BME280;49286;44.460;26.114;2023-03-14T08:12:23;100669.09;;;6.97;62.74
63190;BME280;49286;44.460;26.114;2023-03-14T08:14:48;100636.53;;;6.75;60.00
63190;BME280;49286;44.460;26.114;2023-03-14T08:17:14;100643.25;;;7.10;59.03
63190;BME280;49286;44.460;26.114;2023-03-14T08:19:41;100742.63;;;7.72;58.43
63190;BME280;49286;44.460;26.114;2023-03-14T08:22:07;100678.63;;;7.44;57.92
63190;BME280;49286;44.460;26.114;2023-03-14T08:24:33;100710.81;;;7.95;58.43
63190;BME280;49286;44.460;26.114;2023-03-14T08:26:58;100749.28;;;8.03;57.20
63190;BME280;49286;44.460;26.114;2023-03-14T08:29:24;100725.69;;;8.00;56.41
63190;BME280;49286;44.460;26.114;2023-03-14T08:31:49;100722.13;;;7.94;57.36
63190;BME280;49286;44.460;26.114;2023-03-14T08:34:15;100642.38;;;7.63;56.51
63190;BME280;49286;44.460;26.114;2023-03-14T08:36:41;100726.09;;;8.27;55.68
63190;BME280;49286;44.460;26.114;2023-03-14T08:39:06;100606.75;;;7.66;54.84
63190;BME280;49286;44.460;26.114;2023-03-14T08:41:34;100711.50;;;8.41;53.94
63190;BME280;49286;44.460;26.114;2023-03-14T08:44:06;100714.31;;;8.55;53.76
63190;BME280;49286;44.460;26.114;2023-03-14T08:46:32;100698.78;;;8.69;51.22
63190;BME280;49286;44.460;26.114;2023-03-14T08:48:57;100599.72;;;8.24;51.48
63190;BME280;49286;44.460;26.114;2023-03-14T08:51:23;100560.59;;;8.32;51.12
63190;BME280;49286;44.460;26.114;2023-03-14T08:53:48;100707.91;;;9.04;50.91
63190;BME280;49286;44.460;26.114;2023-03-14T08:56:14;100568.47;;;8.37;50.54
63190;BME280;49286;44.460;26.114;2023-03-14T08:58:39;100572.25;;;8.57;50.09
63190;BME280;49286;44.460;26.114;2023-03-14T09:01:08;100687.41;;;9.49;49.90
63190;BME280;49286;44.460;26.114;2023-03-14T09:03:35;100550.13;;;9.21;49.22
63190;BME280;49286;44.460;26.114;2023-03-14T09:06:08;100668.69;;;10.18;48.90
63190;BME280;49286;44.460;26.114;2023-03-14T09:08:34;100566.22;;;9.75;47.40
63190;BME280;49286;44.460;26.114;2023-03-14T09:11:01;100659.25;;;10.46;47.14
63190;BME280;49286;44.460;26.114;2023-03-14T09:13:27;100552.28;;;9.79;46.01
63190;BME280;49286;44.460;26.114;2023-03-14T09:15:53;100542.78;;;10.05;45.94
63190;BME280;49286;44.460;26.114;2023-03-14T09:18:20;100655.00;;;10.72;44.64
63190;BME280;49286;44.460;26.114;2023-03-14T09:20:45;100640.75;;;10.21;43.29
63190;BME280;49286;44.460;26.114;2023-03-14T09:23:11;100627.59;;;10.17;42.14
63190;BME280;49286;44.460;26.114;2023-03-14T09:25:37;100539.06;;;9.60;42.90
63190;BME280;49286;44.460;26.114;2023-03-14T09:28:02;100645.28;;;10.54;44.42
63190;BME280;49286;44.460;26.114;2023-03-14T09:30:28;100522.66;;;10.04;44.21
63190;BME280;49286;44.460;26.114;2023-03-14T09:32:53;100609.22;;;10.07;44.40
63190;BME280;49286;44.460;26.114;2023-03-14T09:35:19;100538.19;;;9.63;44.43
63190;BME280;49286;44.460;26.114;2023-03-14T09:37:44;100554.13;;;10.09;42.18
63190;BME280;49286;44.460;26.114;2023-03-14T09:40:15;100603.34;;;10.61;40.54
63190;BME280;49286;44.460;26.114;2023-03-14T09:42:42;100487.66;;;9.91;39.82
63190;BME280;49286;44.460;26.114;2023-03-14T09:45:14;100606.06;;;11.01;38.02
63190;BME280;49286;44.460;26.114;2023-03-14T09:47:43;100579.78;;;11.24;38.82
63190;BME280;49286;44.460;26.114;2023-03-14T09:50:19;100502.75;;;11.00;37.34
63190;BME280;49286;44.460;26.114;2023-03-14T09:53:13;100602.53;;;11.80;36.68
63190;BME280;49286;44.460;26.114;2023-03-14T09:55:39;100522.00;;;11.40;37.88
63190;BME280;49286;44.460;26.114;2023-03-14T09:58:12;100494.84;;;11.37;37.52
63190;BME280;49286;44.460;26.114;2023-03-14T10:00:38;100570.09;;;11.96;36.18
63190;BME280;49286;44.460;26.114;2023-03-14T10:05:41;100479.97;;;11.20;35.39
63190;BME280;49286;44.460;26.114;2023-03-14T10:08:10;100463.22;;;11.65;36.02
63190;BME280;49286;44.460;26.114;2023-03-14T10:10:36;100580.63;;;11.69;34.65
63190;BME280;49286;44.460;26.114;2023-03-14T10:13:18;100545.38;;;12.27;34.36
63190;BME280;49286;44.460;26.114;2023-03-14T10:15:59;100559.34;;;12.42;34.96
63190;BME280;49286;44.460;26.114;2023-03-14T10:18:29;100553.25;;;12.37;33.73
63190;BME280;49286;44.460;26.114;2023-03-14T10:21:04;100511.25;;;12.16;34.25
63190;BME280;49286;44.460;26.114;2023-03-14T10:23:32;100431.78;;;11.32;34.85
63190;BME280;49286;44.460;26.114;2023-03-14T10:28:39;100525.63;;;12.97;33.71
63190;BME280;49286;44.460;26.114;2023-03-14T10:31:07;100524.63;;;13.15;32.71
63190;BME280;49286;44.460;26.114;2023-03-14T10:33:35;100409.28;;;12.52;31.96
63190;BME280;49286;44.460;26.114;2023-03-14T10:36:03;100411.97;;;12.44;32.25
63190;BME280;49286;44.460;26.114;2023-03-14T10:38:32;100388.19;;;12.56;31.62
63190;BME280;49286;44.460;26.114;2023-03-14T10:40:58;100387.06;;;12.83;32.47
63190;BME280;49286;44.460;26.114;2023-03-14T10:43:35;100468.13;;;13.46;31.08
63190;BME280;49286;44.460;26.114;2023-03-14T10:46:11;100476.63;;;14.38;30.56
63190;BME280;49286;44.460;26.114;2023-03-14T10:48:39;100365.53;;;13.94;29.61
63190;BME280;49286;44.460;26.114;2023-03-14T10:53:48;100449.78;;;15.20;29.97
63190;BME280;49286;44.460;26.114;2023-03-14T10:56:21;100369.16;;;14.96;30.12
63190;BME280;49286;44.460;26.114;2023-03-14T10:58:56;100361.69;;;15.18;30.18
63190;BME280;49286;44.460;26.114;2023-03-14T11:01:34;100450.56;;;15.25;28.66
63190;BME280;49286;44.460;26.114;2023-03-14T11:07:10;100432.69;;;14.90;29.12
63190;BME280;49286;44.460;26.114;2023-03-14T11:14:58;100405.69;;;15.66;30.36
63190;BME280;49286;44.460;26.114;2023-03-14T11:20:12;100394.63;;;16.63;27.63
63190;BME280;49286;44.460;26.114;2023-03-14T11:22:46;100386.41;;;16.74;28.24
63190;BME280;49286;44.460;26.114;2023-03-14T11:30:51;100372.81;;;16.54;28.37
63190;BME280;49286;44.460;26.114;2023-03-14T11:33:27;100274.06;;;16.13;28.28
63190;BME280;49286;44.460;26.114;2023-03-14T11:36:08;100248.50;;;15.37;28.69
63190;BME280;49286;44.460;26.114;2023-03-14T11:41:04;100281.88;;;16.19;28.80
63190;BME280;49286;44.460;26.114;2023-03-14T11:43:39;100218.69;;;16.05;28.43
63190;BME280;49286;44.460;26.114;2023-03-14T11:49:03;100314.66;;;16.49;27.66
63190;BME280;49286;44.460;26.114;2023-03-14T11:51:34;100242.06;;;15.88;27.80
63190;BME280;49286;44.460;26.114;2023-03-14T11:54:29;100225.88;;;15.62;27.74
63190;BME280;49286;44.460;26.114;2023-03-14T11:57:01;100304.19;;;16.43;27.73
63190;BME280;49286;44.460;26.114;2023-03-14T12:03:02;100288.50;;;16.35;27.50
63190;BME280;49286;44.460;26.114;2023-03-14T12:13:33;100266.91;;;16.85;27.12
63190;BME280;49286;44.460;26.114;2023-03-14T12:16:07;100167.59;;;15.66;27.26
63190;BME280;49286;44.460;26.114;2023-03-14T12:18:44;100273.50;;;16.68;27.82
63190;BME280;49286;44.460;26.114;2023-03-14T12:21:11;100241.31;;;16.17;26.86
63190;BME280;49286;44.460;26.114;2023-03-14T12:23:50;100266.72;;;15.51;27.42
63190;BME280;49286;44.460;26.114;2023-03-14T12:39:43;100242.69;;;16.97;27.58
63190;BME280;49286;44.460;26.114;2023-03-14T12:44:49;100121.41;;;16.46;26.92
63190;BME280;49286;44.460;26.114;2023-03-14T12:49:44;100214.75;;;17.15;26.70
63190;BME280;49286;44.460;26.114;2023-03-14T12:58:00;100191.31;;;17.31;27.13
63190;BME280;49286;44.460;26.114;2023-03-14T13:00:32;100179.75;;;17.04;26.91
63190;BME280;49286;44.460;26.114;2023-03-14T13:03:17;100099.53;;;15.38;27.68
63190;BME280;49286;44.460;26.114;2023-03-14T13:06:00;100176.88;;;15.85;27.89
63190;BME280;49286;44.460;26.114;2023-03-14T13:08:40;100179.53;;;15.85;28.14
63190;BME280;49286;44.460;26.114;2023-03-14T13:11:19;100049.72;;;16.21;28.08
63190;BME280;49286;44.460;26.114;2023-03-14T13:13:48;100159.81;;;17.20;27.50
63190;BME280;49286;44.460;26.114;2023-03-14T13:16:20;100138.66;;;17.19;27.03
63190;BME280;49286;44.460;26.114;2023-03-14T13:18:50;100136.41;;;16.75;27.46
63190;BME280;49286;44.460;26.114;2023-03-14T13:21:25;100131.59;;;16.27;27.24
63190;BME280;49286;44.460;26.114;2023-03-14T13:24:06;99966.53;;;15.02;27.60
63190;BME280;49286;44.460;26.114;2023-03-14T13:26:42;100039.22;;;16.48;27.71
63190;BME280;49286;44.460;26.114;2023-03-14T13:29:22;100123.06;;;16.80;26.54
63190;BME280;49286;44.460;26.114;2023-03-14T13:31:51;100035.03;;;16.68;27.10
63190;BME280;49286;44.460;26.114;2023-03-14T13:34:17;100023.63;;;16.66;26.35
63190;BME280;49286;44.460;26.114;2023-03-14T13:36:42;100031.88;;;16.85;26.63
63190;BME280;49286;44.460;26.114;2023-03-14T13:39:21;100012.47;;;15.97;25.82
63190;BME280;49286;44.460;26.114;2023-03-14T13:41:53;100034.28;;;15.74;27.03
63190;BME280;49286;44.460;26.114;2023-03-14T13:44:38;100009.81;;;16.27;25.87
63190;BME280;49286;44.460;26.114;2023-03-14T13:47:09;100072.13;;;17.26;27.10
63190;BME280;49286;44.460;26.114;2023-03-14T13:49:36;100108.16;;;17.32;25.10
63190;BME280;49286;44.460;26.114;2023-03-14T13:52:03;100094.56;;;17.16;25.73
63190;BME280;49286;44.460;26.114;2023-03-14T13:54:31;100027.47;;;16.86;25.83
63190;BME280;49286;44.460;26.114;2023-03-14T13:57:02;100002.50;;;16.93;25.85